createdAt,value
2023-05-03T00:00:09.729Z,94.5077
2023-05-03T00:01:11.886Z,94.5253
2023-05-03T00:02:14.067Z,94.5604
2023-05-03T00:03:16.247Z,94.5586
2023-05-03T00:04:18.470Z,94.5160
2023-05-03T00:05:20.705Z,94.5112
2023-05-03T00:06:22.868Z,94.5257
2023-05-03T00:07:25.261Z,94.5591
2023-05-03T00:08:27.431Z,94.5066
2023-05-03T00:09:29.561Z,94.5854
2023-05-03T00:10:31.891Z,94.8337
2023-05-03T00:11:34.052Z,94.8909
2023-05-03T00:12:36.169Z,94.9270
2023-05-03T00:13:38.332Z,94.9932
2023-05-03T00:14:40.493Z,95.0510
2023-05-03T00:15:42.619Z,95.1873
2023-05-03T00:16:44.821Z,95.2122
2023-05-03T00:17:47.236Z,95.2036
2023-05-03T00:18:49.561Z,95.1530
2023-05-03T00:19:51.673Z,95.2174
2023-05-03T00:20:53.802Z,95.1637
2023-05-03T00:21:55.933Z,95.0393
2023-05-03T00:22:58.094Z,95.0771
2023-05-03T00:24:00.258Z,95.1217
2023-05-03T00:25:00.758Z,95.0861
2023-05-03T00:26:02.879Z,95.0601
2023-05-03T00:27:05.017Z,95.0855
2023-05-03T00:28:07.188Z,95.0290
2023-05-03T00:29:09.358Z,95.0764
2023-05-03T00:30:11.519Z,95.0317
2023-05-03T00:31:13.693Z,95.0792
2023-05-03T00:32:15.883Z,95.0620
2023-05-03T00:33:18.064Z,95.0954
2023-05-03T00:34:20.242Z,95.1929
2023-05-03T00:35:22.389Z,95.3130
2023-05-03T00:36:24.527Z,95.3964
2023-05-03T00:37:26.682Z,95.4632
2023-05-03T00:38:28.847Z,95.5790
2023-05-03T00:39:31.025Z,95.6711
2023-05-03T00:40:33.184Z,95.7421
2023-05-03T00:41:35.355Z,95.7750
2023-05-03T00:42:37.534Z,95.7797
2023-05-03T00:43:39.679Z,95.8298
2023-05-03T00:44:41.826Z,95.8794
2023-05-03T00:45:44.005Z,95.9493
2023-05-03T00:46:46.204Z,96.0263
2023-05-03T00:47:48.418Z,96.0525
2023-05-03T00:48:50.616Z,96.1076
2023-05-03T00:49:52.826Z,96.1585
2023-05-03T00:50:54.965Z,96.2518
2023-05-03T00:51:57.133Z,96.3493
2023-05-03T00:52:59.296Z,96.4451
2023-05-03T00:54:01.476Z,96.4855
2023-05-03T00:55:03.870Z,96.5109
2023-05-03T00:56:06.042Z,96.5193
2023-05-03T00:57:08.216Z,96.5911
2023-05-03T00:58:10.403Z,96.6565
2023-05-03T00:59:12.572Z,96.6942
2023-05-03T01:00:14.785Z,96.7230
2023-05-03T01:01:16.955Z,96.7253
2023-05-03T01:02:19.099Z,96.6967
2023-05-03T01:03:21.306Z,96.6519
2023-05-03T01:04:23.547Z,96.6026
2023-05-03T01:05:25.697Z,96.6024
2023-05-03T01:06:27.925Z,96.6357
2023-05-03T01:07:30.147Z,96.6214
2023-05-03T01:08:32.368Z,96.5937
2023-05-03T01:09:34.496Z,96.5743
2023-05-03T01:10:36.674Z,96.5886
2023-05-03T01:11:38.830Z,96.6072
2023-05-03T01:12:40.976Z,96.6008
2023-05-03T01:13:43.129Z,96.5928
2023-05-03T01:14:45.291Z,96.6374
2023-05-03T01:15:47.488Z,96.6673
2023-05-03T01:16:49.634Z,96.6716
2023-05-03T01:17:51.826Z,96.6922
2023-05-03T01:18:53.965Z,96.7260
2023-05-03T01:19:56.641Z,96.7565
2023-05-03T01:20:58.804Z,96.7770
2023-05-03T01:22:00.938Z,96.7629
2023-05-03T01:23:03.049Z,96.7193
2023-05-03T01:24:05.203Z,96.7199
2023-05-03T01:25:07.327Z,96.7231
2023-05-03T01:26:09.468Z,96.7629
2023-05-03T01:27:11.631Z,96.7420
2023-05-03T01:28:13.803Z,96.7192
2023-05-03T01:29:15.984Z,96.6795
2023-05-03T01:30:18.132Z,96.5991
2023-05-03T01:31:20.367Z,96.5228
2023-05-03T01:32:22.598Z,96.5249
2023-05-03T01:33:24.817Z,96.5283
2023-05-03T01:34:27.005Z,96.5262
2023-05-03T01:35:29.263Z,96.5297
2023-05-03T01:36:31.417Z,96.5940
2023-05-03T01:37:33.620Z,96.6539
2023-05-03T01:38:35.790Z,96.6983
2023-05-03T01:39:37.963Z,96.7588
2023-05-03T01:40:40.151Z,96.7668
2023-05-03T01:41:42.336Z,96.7958
2023-05-03T01:42:44.540Z,96.8531
2023-05-03T01:43:46.731Z,96.8711
2023-05-03T01:44:48.887Z,96.9214
2023-05-03T01:45:51.085Z,96.9672
2023-05-03T01:46:53.270Z,97.0247
2023-05-03T01:47:55.485Z,97.1006
2023-05-03T01:48:57.663Z,97.1239
2023-05-03T01:49:59.991Z,97.1262
2023-05-03T01:51:02.275Z,97.1465
2023-05-03T01:52:04.446Z,97.1841
2023-05-03T01:53:06.631Z,97.1975
2023-05-03T01:54:08.817Z,97.2011
2023-05-03T01:55:11.015Z,97.2179
2023-05-03T01:56:13.161Z,97.2392
2023-05-03T01:57:15.362Z,97.1705
2023-05-03T01:58:17.532Z,97.1239
2023-05-03T01:59:19.733Z,97.1030
2023-05-03T02:00:21.920Z,97.1096
2023-05-03T02:01:24.142Z,97.1090
2023-05-03T02:02:26.339Z,97.1000
2023-05-03T02:03:28.510Z,97.0776
2023-05-03T02:04:31.304Z,97.0454
2023-05-03T02:05:33.263Z,97.0158
2023-05-03T02:06:35.509Z,97.0078
2023-05-03T02:07:37.695Z,97.0194
2023-05-03T02:08:39.873Z,96.9898
2023-05-03T02:09:42.038Z,96.9469
2023-05-03T02:10:44.245Z,96.8820
2023-05-03T02:11:46.454Z,96.9156
2023-05-03T02:12:48.633Z,96.9532
2023-05-03T02:13:50.834Z,96.9469
2023-05-03T02:14:53.028Z,96.8536
2023-05-03T02:15:55.249Z,96.7577
2023-05-03T02:16:57.462Z,96.7309
2023-05-03T02:17:59.894Z,96.7130
2023-05-03T02:19:02.088Z,96.7199
2023-05-03T02:20:04.616Z,96.7768
2023-05-03T02:21:07.000Z,96.7049
2023-05-03T02:22:09.223Z,96.5525
2023-05-03T02:23:11.413Z,96.4707
2023-05-03T02:24:13.598Z,96.3969
2023-05-03T02:25:15.824Z,96.4032
2023-05-03T02:26:18.046Z,96.3353
2023-05-03T02:27:20.237Z,96.2692
2023-05-03T02:28:22.445Z,96.2520
2023-05-03T02:29:24.636Z,96.3160
2023-05-03T02:30:26.813Z,96.3956
2023-05-03T02:31:29.071Z,96.4805
2023-05-03T02:32:31.387Z,96.4929
2023-05-03T02:33:33.616Z,96.4912
2023-05-03T02:34:35.775Z,96.5402
2023-05-03T02:35:37.971Z,96.6151
2023-05-03T02:36:40.157Z,96.7488
2023-05-03T02:37:42.355Z,96.9410
2023-05-03T02:38:44.522Z,97.1012
2023-05-03T02:39:46.706Z,97.1848
2023-05-03T02:40:48.907Z,97.2080
2023-05-03T02:41:51.076Z,97.2493
2023-05-03T02:42:53.280Z,97.2814
2023-05-03T02:43:55.499Z,97.2586
2023-05-03T02:44:57.698Z,97.3198
2023-05-03T02:45:59.923Z,97.4569
2023-05-03T02:47:02.160Z,97.5787
2023-05-03T02:48:04.349Z,97.6760
2023-05-03T02:49:06.550Z,97.7917
2023-05-03T02:50:08.961Z,97.8728
2023-05-03T02:51:11.120Z,97.9741
2023-05-03T02:52:13.318Z,98.0186
2023-05-03T02:53:15.518Z,98.1105
2023-05-03T02:54:17.735Z,98.1574
2023-05-03T02:55:19.926Z,98.2173
2023-05-03T02:56:22.136Z,98.2759
2023-05-03T02:57:24.353Z,98.3229
2023-05-03T02:58:26.556Z,98.3538
2023-05-03T02:59:28.727Z,98.3761
2023-05-03T03:00:30.925Z,98.4094
2023-05-03T03:01:33.131Z,98.4513
2023-05-03T03:02:35.372Z,98.4956
2023-05-03T03:03:37.617Z,98.5245
2023-05-03T03:04:39.832Z,98.5604
2023-05-03T03:05:42.029Z,98.6108
2023-05-03T03:06:44.293Z,98.6443
2023-05-03T03:07:46.858Z,98.6936
2023-05-03T03:08:49.073Z,98.7297
2023-05-03T03:09:51.265Z,98.7574
2023-05-03T03:10:53.461Z,98.7921
2023-05-03T03:11:55.659Z,98.8394
2023-05-03T03:12:57.874Z,98.8855
2023-05-03T03:14:00.058Z,98.9079
2023-05-03T03:15:02.275Z,98.9350
2023-05-03T03:16:04.513Z,98.9551
2023-05-03T03:17:06.693Z,98.9738
2023-05-03T03:18:08.894Z,98.9939
2023-05-03T03:19:11.125Z,99.0278
2023-05-03T03:20:13.312Z,99.0360
2023-05-03T03:21:15.484Z,99.0563
2023-05-03T03:22:17.668Z,99.0745
2023-05-03T03:23:19.838Z,99.0950
2023-05-03T03:24:22.021Z,99.1035
2023-05-03T03:25:24.202Z,99.1098
2023-05-03T03:26:26.437Z,99.1189
2023-05-03T03:27:28.626Z,99.1076
2023-05-03T03:28:30.816Z,99.1134
2023-05-03T03:29:33.020Z,99.1317
2023-05-03T03:30:35.257Z,99.1548
2023-05-03T03:31:37.447Z,99.1521
2023-05-03T03:32:39.720Z,99.1635
2023-05-03T03:33:41.900Z,99.1604
2023-05-03T03:34:44.075Z,99.1543
2023-05-03T03:35:46.240Z,99.1520
2023-05-03T03:36:48.393Z,99.1514
2023-05-03T03:37:50.563Z,99.1266
2023-05-03T03:38:52.747Z,99.0863
2023-05-03T03:39:54.930Z,99.0323
2023-05-03T03:40:57.103Z,98.9429
2023-05-03T03:41:59.290Z,98.8641
2023-05-03T03:43:01.479Z,98.8062
2023-05-03T03:44:03.656Z,98.7104
2023-05-03T03:45:05.832Z,98.6151
2023-05-03T03:46:08.024Z,98.5082
2023-05-03T03:47:10.299Z,98.3722
2023-05-03T03:48:12.623Z,98.2577
2023-05-03T03:49:14.840Z,98.1797
2023-05-03T03:50:17.024Z,98.1585
2023-05-03T03:51:19.196Z,98.1522
2023-05-03T03:52:21.416Z,98.1520
2023-05-03T03:53:23.635Z,98.1104
2023-05-03T03:54:25.829Z,98.0923
2023-05-03T03:55:28.037Z,98.0816
2023-05-03T03:56:30.271Z,98.0927
2023-05-03T03:57:32.479Z,98.0858
2023-05-03T03:58:34.690Z,98.0891
2023-05-03T03:59:36.931Z,98.0727
2023-05-03T04:00:39.136Z,98.0617
2023-05-03T04:01:41.327Z,97.9441
2023-05-03T04:02:43.819Z,97.8467
2023-05-03T04:03:46.236Z,97.8299
2023-05-03T04:04:48.402Z,97.8295
2023-05-03T04:05:50.613Z,97.7961
2023-05-03T04:06:52.900Z,97.7754
2023-05-03T04:07:55.126Z,97.7943
2023-05-03T04:08:57.308Z,97.7580
2023-05-03T04:10:01.552Z,97.6348
2023-05-03T04:11:00.336Z,97.4890
2023-05-03T04:12:02.530Z,97.4532
2023-05-03T04:13:04.791Z,97.4508
2023-05-03T04:14:06.977Z,97.4710
2023-05-03T04:15:09.124Z,97.4329
2023-05-03T04:16:11.300Z,97.4105
2023-05-03T04:17:13.556Z,97.4482
2023-05-03T04:18:15.712Z,97.4443
2023-05-03T04:19:17.911Z,97.4357
2023-05-03T04:20:20.105Z,97.4598
2023-05-03T04:21:22.341Z,97.4366
2023-05-03T04:22:24.522Z,97.4538
2023-05-03T04:23:26.744Z,97.4694
2023-05-03T04:24:28.934Z,97.4383
2023-05-03T04:25:31.105Z,97.4158
2023-05-03T04:26:33.330Z,97.3751
2023-05-03T04:27:35.490Z,97.2867
2023-05-03T04:28:37.683Z,97.2614
2023-05-03T04:29:39.907Z,97.2320
2023-05-03T04:30:42.094Z,97.2111
2023-05-03T04:31:44.314Z,97.2169
2023-05-03T04:32:46.568Z,97.1589
2023-05-03T04:33:48.738Z,97.0903
2023-05-03T04:34:51.964Z,97.0675
2023-05-03T04:35:52.340Z,97.0049
2023-05-03T04:36:54.548Z,96.9937
2023-05-03T04:37:56.712Z,96.9957
2023-05-03T04:38:58.879Z,96.9398
2023-05-03T04:40:01.268Z,96.7759
2023-05-03T04:41:03.713Z,96.7682
2023-05-03T04:42:05.885Z,96.7332
2023-05-03T04:43:08.089Z,96.6622
2023-05-03T04:44:10.361Z,96.6673
2023-05-03T04:45:12.516Z,96.5838
2023-05-03T04:46:14.746Z,96.5603
2023-05-03T04:47:16.926Z,96.5539
2023-05-03T04:48:19.116Z,96.4753
2023-05-03T04:49:21.342Z,96.3759
2023-05-03T04:50:23.604Z,96.2845
2023-05-03T04:51:25.820Z,96.2943
2023-05-03T04:52:28.049Z,96.2690
2023-05-03T04:53:30.204Z,96.2471
2023-05-03T04:54:32.436Z,96.0659
2023-05-03T04:55:34.640Z,95.9570
2023-05-03T04:56:36.800Z,95.8637
2023-05-03T04:57:39.768Z,95.7575
2023-05-03T04:58:41.940Z,95.6668
2023-05-03T04:59:44.126Z,95.5839
2023-05-03T05:00:46.338Z,95.5602
2023-05-03T05:01:48.571Z,95.6037
2023-05-03T05:02:50.788Z,95.5869
2023-05-03T05:03:53.181Z,95.6429
2023-05-03T05:04:55.626Z,95.6232
2023-05-03T05:05:57.791Z,95.6749
2023-05-03T05:06:59.997Z,95.7239
2023-05-03T05:08:02.479Z,95.7396
2023-05-03T05:09:04.682Z,95.7588
2023-05-03T05:10:06.929Z,95.7996
2023-05-03T05:11:09.138Z,95.7303
2023-05-03T05:12:11.403Z,95.7485
2023-05-03T05:13:13.644Z,95.8852
2023-05-03T05:14:15.857Z,96.0078
2023-05-03T05:15:18.104Z,96.0508
2023-05-03T05:16:20.346Z,96.1012
2023-05-03T05:17:22.623Z,96.1180
2023-05-03T05:18:24.838Z,96.1294
2023-05-03T05:19:27.009Z,96.2536
2023-05-03T05:20:29.196Z,96.1020
2023-05-03T05:21:31.394Z,96.0451
2023-05-03T05:22:33.604Z,96.1277
2023-05-03T05:23:35.807Z,96.2315
2023-05-03T05:24:38.033Z,96.1835
2023-05-03T05:25:40.214Z,96.1520
2023-05-03T05:26:42.403Z,96.0801
2023-05-03T05:27:44.594Z,95.9681
2023-05-03T05:28:46.789Z,96.0501
2023-05-03T05:29:48.963Z,96.1349
2023-05-03T05:30:51.155Z,96.3272
2023-05-03T05:31:53.411Z,96.2081
2023-05-03T05:32:55.599Z,96.2468
2023-05-03T05:33:57.756Z,96.3028
2023-05-03T05:34:59.957Z,96.1476
2023-05-03T05:36:02.180Z,96.2883
2023-05-03T05:37:04.456Z,96.0584
2023-05-03T05:38:06.683Z,95.8512
2023-05-03T05:39:08.871Z,95.7577
2023-05-03T05:40:11.086Z,95.8572
2023-05-03T05:41:13.285Z,95.8293
2023-05-03T05:42:15.482Z,95.6508
2023-05-03T05:43:17.750Z,95.4270
2023-05-03T05:44:20.028Z,95.2613
2023-05-03T05:45:22.237Z,95.0872
2023-05-03T05:46:24.493Z,94.6896
2023-05-03T05:47:27.089Z,95.1066
2023-05-03T05:48:29.357Z,95.0699
2023-05-03T05:49:31.542Z,94.8671
2023-05-03T05:50:33.771Z,94.8698
2023-05-03T05:51:36.059Z,94.9173
2023-05-03T05:52:38.279Z,95.1974
2023-05-03T05:53:40.447Z,95.2741
2023-05-03T05:54:42.792Z,94.9180
2023-05-03T05:55:44.986Z,94.7911
2023-05-03T05:56:47.180Z,94.6485
2023-05-03T05:57:49.705Z,94.2527
2023-05-03T05:58:51.911Z,94.0749
2023-05-03T05:59:54.253Z,94.0637
2023-05-03T06:00:56.462Z,93.8246
2023-05-03T06:01:58.752Z,93.9258
2023-05-03T06:03:00.997Z,93.8082
2023-05-03T06:04:03.203Z,94.0161
2023-05-03T06:05:07.531Z,93.7675
2023-05-03T06:06:06.336Z,93.7881
2023-05-03T06:07:08.513Z,93.7516
2023-05-03T06:08:10.715Z,93.4272
2023-05-03T06:09:23.531Z,94.0782
2023-05-03T06:10:15.639Z,93.4239
2023-05-03T06:11:17.901Z,93.3942
2023-05-03T06:12:20.392Z,93.8482
2023-05-03T06:13:22.575Z,93.9085
2023-05-03T06:14:24.739Z,94.2417
2023-05-03T06:15:34.468Z,94.1041
2023-05-03T06:16:36.676Z,93.9740
2023-05-03T06:17:38.977Z,93.6724
2023-05-03T06:18:41.158Z,93.4751
2023-05-03T06:19:45.071Z,93.1729
2023-05-03T06:20:43.725Z,93.2233
2023-05-03T06:21:45.932Z,93.3419
2023-05-03T06:22:48.184Z,93.1692
2023-05-03T06:23:50.403Z,92.8198
2023-05-03T06:24:52.626Z,92.7807
2023-05-03T06:25:54.890Z,93.0015
2023-05-03T06:26:57.140Z,92.9324
2023-05-03T06:27:59.377Z,92.9325
2023-05-03T06:29:01.603Z,92.5712
2023-05-03T06:30:04.046Z,92.6119
2023-05-03T06:31:06.548Z,92.7582
2023-05-03T06:32:08.889Z,92.8106
2023-05-03T06:33:11.145Z,92.8956
2023-05-03T06:34:13.339Z,92.7423
2023-05-03T06:35:15.515Z,92.8310
2023-05-03T06:36:17.679Z,93.0587
2023-05-03T06:37:19.882Z,92.9979
2023-05-03T06:38:22.053Z,93.0508
2023-05-03T06:39:24.322Z,92.3851
2023-05-03T06:40:26.496Z,92.1116
2023-05-03T06:41:28.671Z,92.2908
2023-05-03T06:42:32.014Z,92.2077
2023-05-03T06:43:34.224Z,92.1544
2023-05-03T06:44:36.494Z,92.2575
2023-05-03T06:45:38.744Z,91.8729
2023-05-03T06:46:41.056Z,91.8215
2023-05-03T06:47:43.387Z,92.3231
2023-05-03T06:48:45.719Z,92.5320
2023-05-03T06:49:47.909Z,92.0609
2023-05-03T06:50:50.118Z,92.0807
2023-05-03T06:51:52.319Z,91.9481
2023-05-03T06:52:54.547Z,92.4400
2023-05-03T06:53:56.743Z,92.0844
2023-05-03T06:54:58.958Z,91.7075
2023-05-03T06:56:01.162Z,91.1941
2023-05-03T06:57:03.381Z,90.9676
2023-05-03T06:58:05.600Z,91.0885
2023-05-03T06:59:07.813Z,90.6290
2023-05-03T07:00:10.018Z,90.6235
2023-05-03T07:01:12.304Z,91.0366
2023-05-03T07:02:14.611Z,91.1860
2023-05-03T07:03:16.939Z,90.9915
2023-05-03T07:04:19.274Z,90.8213
2023-05-03T07:05:21.491Z,90.5235
2023-05-03T07:06:23.986Z,90.4594
2023-05-03T07:07:26.258Z,89.5045
2023-05-03T07:08:28.427Z,89.0930
2023-05-03T07:09:42.061Z,89.1287
2023-05-03T07:10:31.686Z,89.4310
2023-05-03T07:11:33.882Z,89.5050
2023-05-03T07:12:33.991Z,89.6212
2023-05-03T07:13:36.164Z,89.8868
2023-05-03T07:14:38.394Z,89.9024
2023-05-03T07:15:40.573Z,88.8117
2023-05-03T07:16:42.942Z,88.6925
2023-05-03T07:17:45.300Z,88.0148
2023-05-03T07:18:47.504Z,88.7800
2023-05-03T07:19:49.794Z,89.5993
2023-05-03T07:20:52.006Z,89.1026
2023-05-03T07:21:54.201Z,88.6428
2023-05-03T07:22:56.380Z,87.9330
2023-05-03T07:23:58.569Z,87.4876
2023-05-03T07:25:00.889Z,87.2290
2023-05-03T07:26:03.108Z,87.3232
2023-05-03T07:27:05.295Z,86.4441
2023-05-03T07:28:07.512Z,86.1601
2023-05-03T07:29:17.306Z,86.2062
2023-05-03T07:30:19.517Z,86.6317
2023-05-03T07:31:21.662Z,87.0545
2023-05-03T07:32:23.982Z,87.3390
2023-05-03T07:33:26.299Z,86.4896
2023-05-03T07:34:28.517Z,84.6230
2023-05-03T07:35:30.960Z,84.6786
2023-05-03T07:36:33.208Z,85.2153
2023-05-03T07:37:35.705Z,84.2273
2023-05-03T07:38:37.767Z,84.7225
2023-05-03T07:39:40.124Z,86.1815
2023-05-03T07:40:42.332Z,85.5400
2023-05-03T07:42:45.673Z,84.8133
2023-05-03T07:43:48.026Z,86.0860
2023-05-03T07:44:50.216Z,86.5470
2023-05-03T07:45:52.407Z,86.8480
2023-05-03T07:46:54.593Z,86.1839
2023-05-03T07:47:57.541Z,84.8618
2023-05-03T07:48:59.789Z,85.4623
2023-05-03T07:50:02.262Z,84.0108
2023-05-03T07:51:04.620Z,82.2925
2023-05-03T07:52:06.817Z,83.8980
2023-05-03T07:53:09.035Z,84.7172
2023-05-03T07:54:11.196Z,85.0859
2023-05-03T07:55:13.419Z,85.6812
2023-05-03T07:56:15.633Z,86.3036
2023-05-03T07:57:17.825Z,86.7781
2023-05-03T07:58:28.399Z,86.2296
2023-05-03T07:59:20.867Z,86.8331
2023-05-03T08:00:22.916Z,86.0362
2023-05-03T08:01:25.180Z,86.0349
2023-05-03T08:02:27.498Z,85.3137
2023-05-03T08:03:29.799Z,84.9984
2023-05-03T08:04:32.424Z,85.5732
2023-05-03T08:05:34.831Z,86.3114
2023-05-03T08:06:37.031Z,86.1254
2023-05-03T08:07:39.313Z,84.9343
2023-05-03T08:08:41.517Z,83.8129
2023-05-03T08:09:43.694Z,82.6932
2023-05-03T08:10:45.880Z,82.3106
2023-05-03T08:11:48.087Z,82.3794
2023-05-03T08:12:50.339Z,82.5229
2023-05-03T08:13:52.524Z,81.2175
2023-05-03T08:14:54.786Z,81.7126
2023-05-03T08:15:57.201Z,82.2582
2023-05-03T08:16:59.425Z,82.7876
2023-05-03T08:18:01.917Z,81.5038
2023-05-03T08:19:04.076Z,81.7130
2023-05-03T08:20:06.504Z,81.6004
2023-05-03T08:21:08.896Z,76.0202
2023-05-03T08:22:11.156Z,72.8683
2023-05-03T08:23:13.508Z,75.0030
2023-05-03T08:24:16.212Z,76.8014
2023-05-03T08:25:18.531Z,79.0015
2023-05-03T08:26:20.752Z,80.8615
2023-05-03T08:27:23.044Z,80.9617
2023-05-03T08:28:25.274Z,82.2478
2023-05-03T08:29:27.835Z,82.1322
2023-05-03T08:30:30.156Z,80.6965
2023-05-03T08:31:32.435Z,78.9651
2023-05-03T08:32:34.700Z,80.7402
2023-05-03T08:33:36.973Z,81.1761
2023-05-03T08:34:39.190Z,79.8426
2023-05-03T08:35:41.517Z,79.4513
2023-05-03T08:36:43.819Z,78.9751
2023-05-03T08:37:46.016Z,78.4231
2023-05-03T08:38:48.320Z,78.6082
2023-05-03T08:39:50.596Z,80.0832
2023-05-03T08:40:52.842Z,79.1489
2023-05-03T08:41:55.073Z,81.3237
2023-05-03T08:42:57.288Z,81.1032
2023-05-03T08:43:59.535Z,81.1275
2023-05-03T08:45:01.769Z,80.9061
2023-05-03T08:46:04.021Z,80.1150
2023-05-03T08:47:06.661Z,79.8138
2023-05-03T08:48:09.055Z,80.1472
2023-05-03T08:49:11.314Z,79.6192
2023-05-03T08:50:13.572Z,79.0076
2023-05-03T08:51:16.140Z,75.5963
2023-05-03T08:52:18.353Z,72.0702
2023-05-03T08:53:20.575Z,75.4822
2023-05-03T08:54:22.846Z,75.9417
2023-05-03T08:55:25.091Z,72.8089
2023-05-03T08:56:27.387Z,72.6047
2023-05-03T08:57:29.676Z,72.1305
2023-05-03T08:58:31.919Z,70.1463
2023-05-03T08:59:34.184Z,70.5954
2023-05-03T09:00:36.452Z,71.1183
2023-05-03T09:01:39.597Z,71.3654
2023-05-03T09:02:41.950Z,70.3337
2023-05-03T09:03:44.455Z,67.6311
2023-05-03T09:04:49.130Z,67.0878
2023-05-03T09:05:51.355Z,67.0526
2023-05-03T09:06:53.772Z,64.9582
2023-05-03T09:07:56.003Z,68.0839
2023-05-03T09:08:58.228Z,70.3222
2023-05-03T09:10:00.510Z,71.1923
2023-05-03T09:11:03.043Z,70.4272
2023-05-03T09:12:05.252Z,70.2407
2023-05-03T09:13:07.491Z,69.8037
2023-05-03T09:14:10.058Z,67.8266
2023-05-03T09:15:12.254Z,68.3885
2023-05-03T09:16:14.547Z,70.4317
2023-05-03T09:17:17.124Z,70.0290
2023-05-03T09:18:19.468Z,70.8292
2023-05-03T09:19:21.821Z,70.3108
2023-05-03T09:20:24.057Z,69.9352
2023-05-03T09:21:26.273Z,67.3905
2023-05-03T09:22:28.612Z,68.0814
2023-05-03T09:23:38.343Z,67.8348
2023-05-03T09:24:33.300Z,68.8895
2023-05-03T09:25:35.594Z,68.2167
2023-05-03T09:26:37.814Z,67.8695
2023-05-03T09:27:40.036Z,68.0715
2023-05-03T09:28:42.269Z,68.4644
2023-05-03T09:29:44.755Z,66.1324
2023-05-03T09:30:47.011Z,68.0681
2023-05-03T09:31:49.340Z,66.9064
2023-05-03T09:32:51.558Z,68.4202
2023-05-03T09:33:53.760Z,68.1051
2023-05-03T09:34:55.994Z,66.7713
2023-05-03T09:35:58.261Z,66.1091
2023-05-03T09:37:00.546Z,67.0740
2023-05-03T09:38:02.774Z,64.7811
2023-05-03T09:39:05.049Z,66.5004
2023-05-03T09:40:07.276Z,65.2132
2023-05-03T09:41:09.499Z,64.7254
2023-05-03T09:42:11.790Z,65.3453
2023-05-03T09:43:14.056Z,66.2119
2023-05-03T09:44:16.829Z,65.1351
2023-05-03T09:45:19.092Z,65.8229
2023-05-03T09:46:21.458Z,66.6300
2023-05-03T09:47:23.742Z,66.2329
2023-05-03T09:48:26.026Z,66.5325
2023-05-03T09:49:28.239Z,68.8317
2023-05-03T09:50:30.455Z,68.4531
2023-05-03T09:51:32.665Z,67.6336
2023-05-03T09:52:34.910Z,66.4867
2023-05-03T09:53:37.180Z,67.7114
2023-05-03T09:54:39.416Z,68.3865
2023-05-03T09:55:41.633Z,66.1733
2023-05-03T09:57:07.327Z,65.9008
2023-05-03T09:58:02.439Z,64.9376
2023-05-03T09:59:04.654Z,66.1773
2023-05-03T10:00:06.930Z,67.1775
2023-05-03T10:01:09.144Z,65.9139
2023-05-03T10:02:11.401Z,65.2013
2023-05-03T10:03:13.623Z,67.8581
2023-05-03T10:04:15.958Z,66.8311
2023-05-03T10:05:18.253Z,65.0976
2023-05-03T10:06:20.465Z,66.1426
2023-05-03T10:07:22.737Z,65.0378
2023-05-03T10:08:24.968Z,62.8534
2023-05-03T10:09:27.225Z,60.0285
2023-05-03T10:10:29.448Z,60.8854
2023-05-03T10:11:31.716Z,62.6294
2023-05-03T10:12:32.396Z,64.0801
2023-05-03T10:13:34.589Z,64.5826
2023-05-03T10:14:44.435Z,65.9550
2023-05-03T10:15:46.696Z,65.0049
2023-05-03T10:16:49.005Z,63.9776
2023-05-03T10:17:51.318Z,62.9966
2023-05-03T10:18:53.555Z,62.4001
2023-05-03T10:19:55.801Z,61.5446
2023-05-03T10:20:58.039Z,63.0163
2023-05-03T10:22:00.299Z,62.4751
2023-05-03T10:23:02.567Z,64.1401
2023-05-03T10:24:04.779Z,62.2572
2023-05-03T10:25:08.295Z,62.5678
2023-05-03T10:26:17.878Z,61.5797
2023-05-03T10:27:20.287Z,65.0531
2023-05-03T10:28:22.560Z,65.6535
2023-05-03T10:29:24.799Z,65.6425
2023-05-03T10:30:27.134Z,65.1413
2023-05-03T10:31:29.372Z,63.4597
2023-05-03T10:32:31.663Z,64.0067
2023-05-03T10:33:33.913Z,63.9866
2023-05-03T10:34:36.167Z,63.1182
2023-05-03T10:35:38.390Z,62.8095
2023-05-03T10:36:49.398Z,61.7726
2023-05-03T10:37:41.492Z,64.0414
2023-05-03T10:38:43.697Z,61.5338
2023-05-03T10:39:45.926Z,61.7320
2023-05-03T10:40:48.818Z,62.3457
2023-05-03T10:41:51.070Z,64.5488
2023-05-03T10:42:53.770Z,64.6474
2023-05-03T10:43:56.155Z,61.3509
2023-05-03T10:44:58.440Z,58.5951
2023-05-03T10:46:00.711Z,58.8282
2023-05-03T10:47:02.902Z,58.4370
2023-05-03T10:48:05.196Z,57.2098
2023-05-03T10:49:07.435Z,57.4926
2023-05-03T10:50:09.690Z,56.8911
2023-05-03T10:51:11.938Z,58.1239
2023-05-03T10:52:14.181Z,57.8232
2023-05-03T10:53:16.414Z,58.7281
2023-05-03T10:54:18.678Z,59.2766
2023-05-03T10:55:20.956Z,59.3644
2023-05-03T10:56:23.221Z,57.5891
2023-05-03T10:57:25.510Z,58.6861
2023-05-03T10:58:27.717Z,58.5424
2023-05-03T10:59:29.928Z,57.9863
2023-05-03T11:00:32.211Z,56.9176
2023-05-03T11:01:34.485Z,56.6835
2023-05-03T11:02:36.729Z,56.9934
2023-05-03T11:03:38.937Z,57.3111
2023-05-03T11:04:41.329Z,56.8873
2023-05-03T11:05:43.807Z,57.2177
2023-05-03T11:06:46.178Z,57.8207
2023-05-03T11:07:48.544Z,58.2133
2023-05-03T11:08:50.737Z,58.0760
2023-05-03T11:09:52.953Z,58.5982
2023-05-03T11:10:55.268Z,59.5329
2023-05-03T11:11:57.559Z,58.6412
2023-05-03T11:12:59.778Z,58.3501
2023-05-03T11:14:02.017Z,57.7298
2023-05-03T11:15:04.485Z,58.2561
2023-05-03T11:16:07.031Z,58.1108
2023-05-03T11:17:09.240Z,56.9304
2023-05-03T11:18:11.533Z,56.6570
2023-05-03T11:19:13.856Z,57.5994
2023-05-03T11:20:16.097Z,55.4411
2023-05-03T11:21:18.328Z,54.6378
2023-05-03T11:22:20.568Z,56.2273
2023-05-03T11:23:22.809Z,57.1720
2023-05-03T11:24:25.032Z,55.6078
2023-05-03T11:25:27.280Z,55.9594
2023-05-03T11:26:37.332Z,55.5975
2023-05-03T11:27:32.284Z,56.7410
2023-05-03T11:28:34.614Z,56.7398
2023-05-03T11:29:37.274Z,56.8137
2023-05-03T11:30:39.493Z,56.5311
2023-05-03T11:31:41.845Z,57.5799
2023-05-03T11:32:44.086Z,58.1084
2023-05-03T11:33:47.977Z,55.5539
2023-05-03T11:34:46.700Z,54.3409
2023-05-03T11:35:48.916Z,54.4662
2023-05-03T11:36:51.174Z,56.6849
2023-05-03T11:37:53.445Z,56.4790
2023-05-03T11:38:55.670Z,57.5905
2023-05-03T11:39:57.997Z,57.6198
2023-05-03T11:41:00.251Z,57.4922
2023-05-03T11:42:02.498Z,57.8688
2023-05-03T11:43:04.764Z,56.1275
2023-05-03T11:44:15.863Z,55.9768
2023-05-03T11:45:08.332Z,56.0432
2023-05-03T11:46:18.134Z,55.6584
2023-05-03T11:47:20.459Z,55.8148
2023-05-03T11:48:22.798Z,55.7464
2023-05-03T11:49:25.920Z,55.3703
2023-05-03T11:50:28.133Z,55.3596
2023-05-03T11:51:30.341Z,55.6142
2023-05-03T11:52:32.653Z,54.9987
2023-05-03T11:53:34.910Z,55.1369
2023-05-03T11:54:37.223Z,55.0008
2023-05-03T11:55:39.598Z,55.2099
2023-05-03T11:56:41.840Z,55.9473
2023-05-03T11:57:44.094Z,56.4794
2023-05-03T11:58:46.374Z,56.7686
2023-05-03T11:59:48.625Z,56.0809
2023-05-03T12:00:50.857Z,56.3555
2023-05-03T12:01:53.136Z,56.4445
2023-05-03T12:02:55.495Z,55.6936
2023-05-03T12:03:57.891Z,56.3040
2023-05-03T12:05:00.373Z,54.7418
2023-05-03T12:06:03.464Z,54.8897
2023-05-03T12:07:04.417Z,54.6565
2023-05-03T12:08:03.859Z,52.6323
2023-05-03T12:09:08.042Z,52.6982
2023-05-03T12:10:16.832Z,52.3730
2023-05-03T12:11:11.500Z,53.1086
2023-05-03T12:12:14.484Z,53.4128
2023-05-03T12:13:16.875Z,54.5695
2023-05-03T12:14:16.268Z,54.1758
2023-05-03T12:15:18.900Z,53.6709
2023-05-03T12:16:21.578Z,55.9204
2023-05-03T12:17:24.291Z,54.6184
2023-05-03T12:18:26.922Z,52.8398
2023-05-03T12:21:32.018Z,53.2222
2023-05-03T12:22:34.857Z,51.6599
2023-05-03T12:23:37.314Z,52.4278
2023-05-03T12:24:39.766Z,52.9602
2023-05-03T12:25:44.797Z,52.8124
2023-05-03T12:26:43.903Z,53.1968
2023-05-03T12:27:52.298Z,52.8805
2023-05-03T12:28:47.881Z,52.0322
2023-05-03T12:29:51.789Z,53.0699
2023-05-03T12:30:52.984Z,54.0552
2023-05-03T12:31:52.219Z,54.7477
2023-05-03T12:32:54.554Z,55.9067
2023-05-03T12:34:19.959Z,54.6575
2023-05-03T12:34:57.904Z,52.9763
2023-05-03T12:36:03.987Z,52.6631